Time;durP1;ratioP1;P1;durP2;ratioP2;P2;SDS_P1;SDS_P2;PMS_P1;PMS_P2;Temp;Humidity;BMP_temperature;BMP_pressure;BME280_temperature;BME280_humidity;BME280_pressure;Samples;Min_cycle;Max_cycle;Signal;HPM_P1;HPM_P2
2021/06/14 00:02:20;;;;;;;;;7.75;6.50;;;;;21.13;50.52;101885.06;4975019;28;45589;-82
2021/06/14 00:04:45;;;;;;;;;5.25;5.25;;;;;21.16;49.59;101891.06;4976668;28;53475;-83
2021/06/14 00:07:11;;;;;;;;;9.50;7.25;;;;;21.13;48.92;101883.22;4976022;28;45368;-83
2021/06/14 00:09:36;;;;;;;;;7.00;7.00;;;;;21.15;48.73;101888.50;4973964;28;45500;-82
2021/06/14 00:12:04;;;;;;;;;10.50;9.50;;;;;21.15;48.32;101889.34;4974914;28;46441;-83
2021/06/14 00:14:29;;;;;;;;;10.00;8.00;;;;;21.15;48.05;101896.50;4970320;28;45582;-82
2021/06/14 00:16:54;;;;;;;;;9.00;9.00;;;;;21.16;48.41;101898.22;4975851;28;45475;-82
2021/06/14 00:19:21;;;;;;;;;8.50;8.00;;;;;21.16;48.18;101891.06;4975389;28;45636;-81
2021/06/14 00:21:46;;;;;;;;;10.00;9.00;;;;;21.15;47.94;101885.81;4975028;28;46416;-83
2021/06/14 00:24:12;;;;;;;;;14.75;11.00;;;;;21.16;47.60;101888.38;4974715;28;45363;-82
2021/06/14 00:26:38;;;;;;;;;11.75;9.50;;;;;21.09;47.73;101871.91;4974986;28;45813;-78
2021/06/14 00:29:03;;;;;;;;;16.25;13.50;;;;;21.15;47.67;101889.34;4976561;28;45703;-81
2021/06/14 00:31:29;;;;;;;;;9.50;9.50;;;;;21.13;47.69;101885.06;4974819;28;45446;-83
2021/06/14 00:33:54;;;;;;;;;10.50;8.00;;;;;21.06;47.85;101873.94;4975582;28;45499;-82
2021/06/14 00:36:20;;;;;;;;;16.50;11.50;;;;;20.94;47.89;101859.63;4974667;28;45423;-82
2021/06/14 00:38:45;;;;;;;;;10.00;9.00;;;;;21.11;47.84;101890.50;4974510;28;45686;-83
2021/06/14 00:41:14;;;;;;;;;9.25;6.75;;;;;21.10;47.80;101886.13;4975091;28;45641;-82
2021/06/14 00:43:39;;;;;;;;;8.50;7.25;;;;;21.07;48.18;101887.19;4976118;28;45506;-81
2021/06/14 00:46:06;;;;;;;;;9.75;9.25;;;;;21.08;48.47;101890.72;4974350;28;45411;-82
2021/06/14 00:48:32;;;;;;;;;7.75;7.50;;;;;21.04;48.05;101881.22;4974769;28;45614;-83
2021/06/14 00:51:00;;;;;;;;;7.00;7.00;;;;;20.99;48.38;101881.53;4974790;28;45505;-82
2021/06/14 00:53:31;;;;;;;;;5.50;4.00;;;;;20.98;48.26;101885.13;4975789;28;45335;-83
2021/06/14 00:55:59;;;;;;;;;9.00;7.50;;;;;20.94;48.55;101878.31;4972676;28;45419;-81
2021/06/14 00:58:26;;;;;;;;;5.75;5.75;;;;;20.90;49.38;101883.97;4973250;28;45269;-82
2021/06/14 01:00:52;;;;;;;;;7.50;7.25;;;;;20.87;49.89;101876.16;4974243;28;46368;-82
2021/06/14 01:03:18;;;;;;;;;9.50;7.00;;;;;20.87;50.17;101878.81;4972947;28;45384;-83
2021/06/14 01:05:49;;;;;;;;;6.00;6.00;;;;;20.81;50.30;101882.78;4974527;28;45451;-81
2021/06/14 01:08:15;;;;;;;;;8.75;7.00;;;;;20.75;50.76;101877.84;4974316;28;45524;-81
2021/06/14 01:10:42;;;;;;;;;7.50;7.50;;;;;20.72;51.41;101878.91;4975868;28;45473;-80
2021/06/14 01:13:23;;;;;;;;;9.50;8.00;;;;;20.66;51.53;101878.47;4972542;28;45356;-81
2021/06/14 01:16:16;;;;;;;;;8.50;6.25;;;;;20.61;51.76;101876.09;4971379;28;45719;-81
2021/06/14 01:19:05;;;;;;;;;10.75;8.50;;;;;20.56;51.77;101872.88;4974249;28;45301;-81
2021/06/14 01:21:58;;;;;;;;;8.00;5.25;;;;;20.48;52.16;101870.72;4970242;28;45541;-81
2021/06/14 01:24:50;;;;;;;;;7.50;6.00;;;;;20.44;51.89;101877.19;4972010;28;45685;-81
2021/06/14 01:27:50;;;;;;;;;8.00;6.25;;;;;20.39;51.86;101873.13;4972266;28;45630;-81
2021/06/14 01:30:18;;;;;;;;;6.50;6.25;;;;;20.30;52.54;101859.41;4972160;28;45432;-82
2021/06/14 01:32:46;;;;;;;;;7.25;6.75;;;;;20.27;52.47;101864.97;4972611;28;46640;-83
2021/06/14 01:35:14;;;;;;;;;7.00;6.00;;;;;20.24;53.13;101865.16;4972485;28;45458;-82
2021/06/14 01:37:48;;;;;;;;;5.50;4.50;;;;;20.21;52.70;101864.53;4972808;28;45468;-78
2021/06/14 01:40:16;;;;;;;;;6.75;5.25;;;;;20.16;52.68;101863.97;4972075;28;45601;-82
2021/06/14 01:42:46;;;;;;;;;7.00;6.50;;;;;20.11;53.02;101856.25;4955631;28;47683;-82
2021/06/14 01:45:12;;;;;;;;;5.25;5.25;;;;;20.10;53.37;101851.88;4972874;28;45487;-81
2021/06/14 01:47:38;;;;;;;;;6.25;5.50;;;;;20.07;53.25;101858.25;4972955;28;45396;-81
2021/06/14 01:50:04;;;;;;;;;4.75;4.75;;;;;20.03;53.19;101859.41;4972857;28;47033;-80
2021/06/14 01:52:30;;;;;;;;;6.50;4.50;;;;;19.95;53.73;101845.72;4972813;28;46712;-82
2021/06/14 01:54:57;;;;;;;;;5.25;5.25;;;;;19.93;53.91;101854.75;4972361;28;45763;-82
2021/06/14 01:57:23;;;;;;;;;6.00;4.00;;;;;19.90;54.31;101853.16;4972278;28;45422;-83
2021/06/14 01:59:51;;;;;;;;;10.25;6.75;;;;;19.87;54.44;101840.00;4972783;28;45444;-82
2021/06/14 02:02:16;;;;;;;;;6.25;5.50;;;;;19.79;54.06;101826.31;4972871;28;46815;-82
2021/06/14 02:04:46;;;;;;;;;9.75;7.50;;;;;19.76;54.07;101831.84;4975365;28;45343;-82
2021/06/14 02:07:13;;;;;;;;;6.75;6.50;;;;;19.71;54.45;101818.81;4973890;28;45424;-82
2021/06/14 02:09:40;;;;;;;;;5.50;5.50;;;;;19.72;54.68;101822.31;4974097;28;45307;-81
2021/06/14 02:12:08;;;;;;;;;7.00;5.00;;;;;19.67;54.60;101819.94;4973763;28;45588;-82
2021/06/14 02:14:37;;;;;;;;;7.50;6.75;;;;;19.66;54.66;101820.91;4973464;28;45719;-80
2021/06/14 02:17:06;;;;;;;;;5.00;5.00;;;;;19.62;54.72;101816.72;4975377;28;45585;-82
2021/06/14 02:19:32;;;;;;;;;5.50;5.00;;;;;19.62;55.12;101814.06;4975537;28;45571;-82
2021/06/14 02:21:57;;;;;;;;;8.50;6.00;;;;;19.60;55.21;101812.44;4973451;28;46523;-79
2021/06/14 02:24:23;;;;;;;;;4.75;4.75;;;;;19.53;55.41;101806.63;4974078;28;45374;-82
2021/06/14 02:26:49;;;;;;;;;7.00;7.00;;;;;19.51;55.74;101811.19;4987450;28;45508;-82
2021/06/14 02:29:16;;;;;;;;;6.00;6.00;;;;;19.48;55.88;101804.25;4973694;28;46671;-81
2021/06/14 02:31:42;;;;;;;;;5.50;4.50;;;;;19.50;56.30;101809.47;4973182;28;45351;-82
2021/06/14 02:34:08;;;;;;;;;7.00;6.00;;;;;19.46;56.14;101803.47;4972749;28;45497;-82
2021/06/14 02:36:35;;;;;;;;;4.00;4.00;;;;;19.43;56.32;101798.34;4972993;28;45382;-82
2021/06/14 02:39:11;;;;;;;;;7.00;6.75;;;;;19.42;56.27;101798.44;4973676;28;45511;-82
2021/06/14 02:41:37;;;;;;;;;7.00;7.00;;;;;19.34;56.93;101793.59;4958231;28;45454;-82
2021/06/14 02:44:07;;;;;;;;;5.50;5.50;;;;;19.36;57.06;101785.50;4975020;28;45336;-82
2021/06/14 02:46:39;;;;;;;;;6.00;6.00;;;;;19.33;56.94;101789.22;4975151;28;45454;-82
2021/06/14 02:49:04;;;;;;;;;8.75;6.50;;;;;19.27;57.02;101777.13;4975223;28;45750;-83
2021/06/14 02:51:35;;;;;;;;;5.50;4.50;;;;;19.26;56.58;101783.44;4976271;28;45328;-82
2021/06/14 02:54:04;;;;;;;;;7.75;6.50;;;;;19.20;56.86;101781.13;4976373;28;45361;-83
2021/06/14 02:56:32;;;;;;;;;8.25;7.00;;;;;19.20;56.44;101774.94;4961236;28;45249;-82
2021/06/14 02:58:58;;;;;;;;;8.75;5.25;;;;;19.22;56.37;101775.72;4974140;28;45562;-82
2021/06/14 03:01:25;;;;;;;;;6.50;6.50;;;;;19.23;55.59;101777.44;4976348;28;46590;-84
2021/06/14 03:03:52;;;;;;;;;7.00;5.75;;;;;19.20;56.10;101780.28;4975903;28;45783;-83
2021/06/14 03:06:18;;;;;;;;;6.00;6.00;;;;;19.20;56.05;101782.94;4976413;28;45383;-82
2021/06/14 03:08:45;;;;;;;;;10.50;7.50;;;;;19.21;55.55;101779.31;4976664;28;46092;-82
2021/06/14 03:11:10;;;;;;;;;6.75;5.75;;;;;19.19;55.57;101781.22;4977158;28;45672;-83
2021/06/14 03:13:37;;;;;;;;;6.00;6.00;;;;;19.22;55.54;101784.56;4976899;28;45462;-83
2021/06/14 03:16:03;;;;;;;;;6.50;6.50;;;;;19.21;55.53;101784.63;4974845;28;45494;-83
2021/06/14 03:18:30;;;;;;;;;7.50;6.75;;;;;19.20;55.34;101780.28;4977992;28;45308;-82
2021/06/14 03:20:58;;;;;;;;;8.75;7.25;;;;;19.20;55.85;101780.28;4975996;28;45556;-83
2021/06/14 03:23:23;;;;;;;;;10.50;7.00;;;;;19.18;56.13;101787.50;4975999;28;45656;-83
2021/06/14 03:25:51;;;;;;;;;8.00;7.00;;;;;19.13;57.17;101781.63;4977463;28;45305;-82
2021/06/14 03:28:17;;;;;;;;;6.00;6.00;;;;;19.11;57.49;101789.72;4976222;28;45442;-82
2021/06/14 03:30:43;;;;;;;;;6.25;6.25;;;;;19.10;57.54;101792.44;4976106;28;45498;-82
2021/06/14 03:33:10;;;;;;;;;9.00;8.00;;;;;19.07;57.09;101785.53;4976479;28;45439;-82
2021/06/14 03:35:36;;;;;;;;;9.75;8.00;;;;;19.03;57.89;101792.84;4974731;28;45779;-82
2021/06/14 03:38:03;;;;;;;;;9.75;6.00;;;;;18.94;57.01;101785.41;4977206;28;45458;-81
2021/06/14 03:40:29;;;;;;;;;4.50;4.50;;;;;18.97;57.18;101793.22;4975920;28;45418;-83
2021/06/14 03:43:04;;;;;;;;;9.00;6.25;;;;;18.95;56.80;101788.91;4975483;28;45686;-82
2021/06/14 03:45:30;;;;;;;;;6.50;6.00;;;;;18.95;56.90;101789.81;4975823;28;45454;-83
2021/06/14 03:47:57;;;;;;;;;6.50;5.50;;;;;18.89;57.17;101784.81;4975811;28;45371;-83
2021/06/14 03:50:23;;;;;;;;;8.00;6.00;;;;;18.92;56.44;101787.31;4975872;28;46731;-82
2021/06/14 03:52:49;;;;;;;;;5.75;5.50;;;;;18.90;56.67;101783.06;4977030;28;45857;-81
2021/06/14 03:55:14;;;;;;;;;9.25;6.00;;;;;18.90;57.02;101797.22;4975677;28;45304;-83
2021/06/14 03:57:40;;;;;;;;;6.50;5.50;;;;;18.90;56.83;101788.38;4975417;28;45478;-81
2021/06/14 04:00:09;;;;;;;;;7.50;6.25;;;;;18.85;56.98;101788.66;4975054;28;46342;-82
2021/06/14 04:02:35;;;;;;;;;6.50;6.00;;;;;18.85;57.50;101801.97;4973875;28;45538;-76
2021/06/14 04:05:00;;;;;;;;;7.00;5.25;;;;;18.85;57.63;101801.97;4976639;28;45559;-82
2021/06/14 04:07:26;;;;;;;;;5.75;5.75;;;;;18.82;58.08;101802.16;4975231;28;45508;-82
2021/06/14 04:09:52;;;;;;;;;7.75;5.50;;;;;18.82;58.08;101798.63;4975226;28;45402;-82
2021/06/14 04:12:17;;;;;;;;;6.00;5.00;;;;;18.80;58.24;101806.72;4975237;28;45837;-81
2021/06/14 04:14:43;;;;;;;;;7.25;5.25;;;;;18.74;58.34;101793.75;4976022;28;45403;-81
2021/06/14 04:17:11;;;;;;;;;6.75;6.50;;;;;18.77;58.76;101809.56;4976290;28;45585;-82
2021/06/14 04:19:37;;;;;;;;;6.00;6.00;;;;;18.76;58.51;101806.03;4976036;28;45452;-82
2021/06/14 04:22:04;;;;;;;;;7.00;6.00;;;;;18.73;58.81;101805.34;4974572;28;45519;-82
2021/06/14 04:24:30;;;;;;;;;8.50;6.75;;;;;18.74;58.30;101804.41;4975264;28;45376;-83
2021/06/14 04:26:55;;;;;;;;;8.25;6.00;;;;;18.71;57.96;101807.25;4975314;28;45414;-82
2021/06/14 04:29:21;;;;;;;;;7.25;7.25;;;;;18.74;58.16;101813.28;4975090;28;45906;-82
2021/06/14 04:31:46;;;;;;;;;6.75;6.75;;;;;18.73;57.99;101803.53;4976617;28;45300;-82
2021/06/14 04:34:12;;;;;;;;;8.00;7.00;;;;;18.74;58.12;101809.72;4975186;28;45628;-83
2021/06/14 04:36:37;;;;;;;;;5.00;5.00;;;;;18.74;58.05;101813.28;4975048;28;45358;-84
2021/06/14 04:39:04;;;;;;;;;8.00;6.00;;;;;18.78;58.49;101821.91;4975102;28;46410;-83
2021/06/14 04:41:29;;;;;;;;;6.50;6.50;;;;;18.78;58.32;101813.91;4975208;28;45898;-83
2021/06/14 04:43:55;;;;;;;;;7.00;7.00;;;;;18.82;58.04;101822.59;4976464;28;45902;-82
2021/06/14 04:46:21;;;;;;;;;8.00;6.50;;;;;18.84;58.45;101826.00;4984915;28;45547;-82
2021/06/14 04:48:46;;;;;;;;;8.25;7.75;;;;;18.90;58.68;101831.84;4980082;28;45417;-80
2021/06/14 04:51:11;;;;;;;;;10.00;7.00;;;;;18.94;58.55;101829.84;4975212;28;45507;-82
2021/06/14 04:53:37;;;;;;;;;8.00;7.75;;;;;18.98;58.45;101826.03;4975122;28;45394;-83
2021/06/14 04:56:03;;;;;;;;;8.00;7.25;;;;;19.05;58.91;101827.38;4976023;28;45426;-83
2021/06/14 04:58:28;;;;;;;;;9.75;7.50;;;;;19.09;58.49;101825.38;4972554;28;45854;-83
2021/06/14 05:00:53;;;;;;;;;9.50;6.75;;;;;19.12;58.42;101822.53;4974233;28;45518;-83
2021/06/14 05:03:18;;;;;;;;;7.00;7.00;;;;;19.21;58.59;101827.28;4974814;28;45884;-83
2021/06/14 05:05:44;;;;;;;;;7.00;7.00;;;;;19.31;58.27;101828.44;4973952;28;45860;-83
2021/06/14 05:08:09;;;;;;;;;4.50;4.00;;;;;19.38;58.20;101820.94;4975269;28;46151;-83
2021/06/14 05:10:35;;;;;;;;;6.25;5.50;;;;;19.48;58.56;101832.72;4974711;28;45541;-82
2021/06/14 05:13:00;;;;;;;;;9.00;7.25;;;;;19.55;57.87;101837.56;4974085;28;45489;-81
2021/06/14 05:15:25;;;;;;;;;9.75;9.00;;;;;19.63;57.94;101844.22;4974792;28;46650;-83
2021/06/14 05:17:51;;;;;;;;;8.00;7.25;;;;;19.65;57.05;101834.34;4974822;28;46410;-83
2021/06/14 05:20:17;;;;;;;;;8.75;8.50;;;;;19.78;57.26;101848.59;4974299;28;46028;-83
2021/06/14 05:22:43;;;;;;;;;9.25;6.25;;;;;19.83;56.49;101845.63;4975850;28;45503;-83
2021/06/14 05:25:10;;;;;;;;;6.25;6.25;;;;;19.90;55.65;101858.50;4974257;28;45460;-83
2021/06/14 05:27:36;;;;;;;;;8.00;7.25;;;;;19.93;55.40;101852.09;4974035;28;46594;-84
2021/06/14 05:30:02;;;;;;;;;7.50;7.00;;;;;20.01;55.16;101842.66;4974158;28;45415;-82
2021/06/14 05:32:28;;;;;;;;;10.00;9.50;;;;;20.19;55.43;101858.41;4975465;28;45372;-82
2021/06/14 05:34:53;;;;;;;;;13.00;7.00;;;;;20.27;55.08;101864.13;4975789;28;45374;-82
2021/06/14 05:37:18;;;;;;;;;6.75;6.50;;;;;20.37;55.54;101862.56;4974310;28;45455;-82
2021/06/14 05:39:44;;;;;;;;;8.25;7.75;;;;;20.48;55.35;101865.38;4974256;28;45407;-84
2021/06/14 05:42:09;;;;;;;;;10.50;7.25;;;;;20.66;54.95;101854.41;4975271;28;45299;-84
2021/06/14 05:44:34;;;;;;;;;7.75;6.25;;;;;21.22;54.82;101858.53;4975204;28;45304;-83
2021/06/14 05:47:00;;;;;;;;;7.50;7.25;;;;;22.38;53.19;101846.59;4976132;28;45455;-80
2021/06/14 05:49:25;;;;;;;;;9.75;6.75;;;;;23.93;50.64;101848.78;4974212;28;46185;-82
2021/06/14 05:51:50;;;;;;;;;8.00;8.00;;;;;25.39;48.53;101848.94;4974716;28;45359;-84
2021/06/14 05:54:16;;;;;;;;;6.25;6.25;;;;;26.75;46.44;101831.16;4987110;28;47206;-84
2021/06/14 05:56:41;;;;;;;;;7.50;6.75;;;;;28.03;44.29;101834.06;4975213;28;46245;-83
2021/06/14 05:59:06;;;;;;;;;7.75;7.00;;;;;28.51;42.68;101830.13;4973974;28;45291;-84
2021/06/14 06:01:32;;;;;;;;;7.75;6.25;;;;;28.34;42.50;101839.09;4973222;28;45798;-80
2021/06/14 06:03:58;;;;;;;;;8.50;7.50;;;;;27.99;41.73;101832.66;4972711;28;45430;-81
2021/06/14 06:06:24;;;;;;;;;8.00;6.75;;;;;27.69;41.99;101831.09;4973267;28;46818;-82
2021/06/14 06:08:49;;;;;;;;;6.00;6.00;;;;;27.35;41.80;101836.25;4970727;28;46095;-81
2021/06/14 06:11:15;;;;;;;;;9.25;7.00;;;;;27.00;41.98;101843.16;4970603;28;45543;-80
2021/06/14 06:13:40;;;;;;;;;8.75;7.75;;;;;26.94;41.92;101838.38;4970965;28;45702;-75
2021/06/14 06:16:06;;;;;;;;;9.25;7.00;;;;;26.70;42.33;101841.53;4971140;28;46344;-87
2021/06/14 06:18:31;;;;;;;;;9.75;7.00;;;;;26.30;42.51;101855.13;4970462;28;45471;-79
2021/06/14 06:20:57;;;;;;;;;9.75;7.50;;;;;25.95;43.03;101856.50;4972325;28;45564;-82
2021/06/14 06:23:22;;;;;;;;;9.00;8.25;;;;;25.58;43.16;101852.66;4976183;28;45561;-78
2021/06/14 06:25:47;;;;;;;;;9.00;7.75;;;;;25.21;43.79;101853.22;4976366;28;46789;-79
2021/06/14 06:28:13;;;;;;;;;7.75;5.25;;;;;24.92;44.77;101856.59;4973620;28;45553;-79
2021/06/14 06:30:39;;;;;;;;;7.00;7.00;;;;;24.73;45.02;101856.44;4975665;28;45512;-81
2021/06/14 06:33:05;;;;;;;;;8.25;7.75;;;;;24.51;45.12;101849.34;4977096;28;45373;-80
2021/06/14 06:35:32;;;;;;;;;6.75;6.75;;;;;24.34;44.48;101857.97;4980154;28;45675;-77
2021/06/14 06:37:57;;;;;;;;;8.75;6.00;;;;;24.16;45.14;101842.38;4976147;28;45685;-80
2021/06/14 06:40:23;;;;;;;;;7.25;5.25;;;;;24.04;45.24;101848.75;4976493;28;45538;-81
2021/06/14 06:42:48;;;;;;;;;9.00;8.00;;;;;23.93;45.85;101844.28;4977026;28;45681;-82
2021/06/14 06:45:14;;;;;;;;;6.00;6.00;;;;;23.86;46.21;101836.88;4978683;28;46219;-80
2021/06/14 06:47:40;;;;;;;;;8.25;7.00;;;;;23.79;45.46;101838.31;4967219;28;45813;-81
2021/06/14 06:50:07;;;;;;;;;7.50;7.00;;;;;23.78;45.52;101844.66;4978725;28;45315;-78
2021/06/14 06:52:33;;;;;;;;;6.25;5.50;;;;;23.76;44.98;101849.31;4977733;28;45457;-81
2021/06/14 06:54:59;;;;;;;;;8.00;7.00;;;;;23.75;45.06;101847.59;4984473;28;46499;-82
2021/06/14 06:57:25;;;;;;;;;7.50;7.00;;;;;23.74;44.70;101832.47;4977637;28;45544;-85
2021/06/14 06:59:51;;;;;;;;;5.75;5.75;;;;;23.69;44.73;101830.16;4976108;28;45586;-80
2021/06/14 07:02:16;;;;;;;;;8.00;7.00;;;;;23.69;44.26;101843.56;4982226;28;45453;-83
2021/06/14 07:04:41;;;;;;;;;11.00;8.00;;;;;23.68;45.13;101840.03;4974366;28;46286;-81
2021/06/14 07:07:07;;;;;;;;;8.00;8.00;;;;;23.69;44.89;101832.84;4978701;28;45550;-81
2021/06/14 07:09:32;;;;;;;;;7.50;7.50;;;;;23.73;44.67;101838.81;4975976;28;45565;-81
2021/06/14 07:11:58;;;;;;;;;6.75;6.75;;;;;23.75;44.75;101831.50;4973930;28;45529;-81
2021/06/14 07:14:24;;;;;;;;;12.50;8.25;;;;;23.74;44.40;101829.78;4978442;28;46566;-81
2021/06/14 07:16:50;;;;;;;;;7.00;7.00;;;;;23.83;44.70;101840.63;4976320;28;45810;-82
2021/06/14 07:19:15;;;;;;;;;6.25;6.25;;;;;23.83;44.38;101831.72;4975429;28;45641;-81
2021/06/14 07:21:41;;;;;;;;;7.75;7.75;;;;;23.89;44.29;101828.53;4972822;28;45483;-80
2021/06/14 07:24:07;;;;;;;;;6.00;5.00;;;;;24.00;44.55;101833.03;4972942;28;45798;-82
2021/06/14 07:26:33;;;;;;;;;6.75;6.75;;;;;24.02;44.20;101826.56;4977258;28;45743;-82
2021/06/14 07:28:59;;;;;;;;;11.50;9.50;;;;;24.11;44.07;101822.25;4978150;28;45474;-81
2021/06/14 07:31:25;;;;;;;;;25.00;23.00;;;;;24.16;43.60;101817.34;4979934;28;45440;-80
2021/06/14 07:33:50;;;;;;;;;10.00;8.50;;;;;24.25;44.20;101813.03;4976661;28;45650;-81
2021/06/14 07:36:16;;;;;;;;;5.25;4.50;;;;;24.35;43.45;101813.97;4977471;28;45430;-81
2021/06/14 07:38:41;;;;;;;;;6.50;6.25;;;;;24.44;43.67;101814.09;4972134;28;47010;-81
2021/06/14 07:41:07;;;;;;;;;10.75;8.00;;;;;24.55;43.16;101823.09;4968525;28;46777;-82
2021/06/14 07:43:33;;;;;;;;;7.00;7.00;;;;;24.68;43.32;101818.34;4975011;28;46589;-86
2021/06/14 07:45:59;;;;;;;;;5.50;5.25;;;;;24.73;42.58;101822.34;4980354;28;45631;-86
2021/06/14 07:48:24;;;;;;;;;7.25;5.75;;;;;24.80;43.03;101820.00;4972870;28;46450;-86
2021/06/14 07:50:52;;;;;;;;;6.75;6.50;;;;;24.88;42.74;101809.44;4975184;28;45511;-88
2021/06/14 07:53:17;;;;;;;;;6.50;6.50;;;;;24.99;42.38;101811.19;4970123;28;46538;-87
2021/06/14 07:55:44;;;;;;;;;8.50;6.75;;;;;25.09;41.90;101806.72;4971169;28;47029;-89
2021/06/14 07:58:09;;;;;;;;;7.50;6.50;;;;;25.21;42.00;101804.81;4978882;28;45522;-88
2021/06/14 08:00:36;;;;;;;;;6.75;6.00;;;;;25.36;42.34;101803.44;4980588;28;45513;-89
2021/06/14 08:03:01;;;;;;;;;6.00;6.00;;;;;25.49;41.74;101800.53;4974060;28;47459;-86
2021/06/14 08:05:27;;;;;;;;;9.00;8.00;;;;;25.62;41.13;101802.97;4978902;28;45585;-89
2021/06/14 08:07:52;;;;;;;;;7.50;7.50;;;;;25.71;41.26;101799.44;4985492;28;45397;-87
2021/06/14 08:10:19;;;;;;;;;53.00;40.25;;;;;25.80;41.57;101803.19;4976504;28;45545;-88
2021/06/14 08:12:49;;;;;;;;;8.00;8.00;;;;;25.89;41.64;101795.09;4981454;28;45732;-79
2021/06/14 08:15:29;;;;;;;;;8.25;6.50;;;;;26.05;41.92;101799.97;4982825;28;45532;-81
2021/06/14 08:18:05;;;;;;;;;5.25;5.25;;;;;26.22;42.05;101791.16;4978377;28;45416;-80
2021/06/14 08:25:59;;;;;;;;;7.50;6.75;;;;;26.92;41.24;101790.94;4975421;28;45874;-85
2021/06/14 08:28:24;;;;;;;;;6.00;6.00;;;;;27.14;40.44;101789.75;4973277;28;45276;-83
2021/06/14 08:30:49;;;;;;;;;6.00;6.00;;;;;27.53;39.83;101780.47;4986397;28;45549;-83
2021/06/14 08:33:15;;;;;;;;;6.50;6.00;;;;;28.07;39.83;101781.38;4974529;28;45714;-85
2021/06/14 08:35:41;;;;;;;;;8.75;8.00;;;;;28.52;38.52;101782.31;4975155;28;45478;-82
2021/06/14 08:38:06;;;;;;;;;7.50;7.00;;;;;28.98;38.42;101774.84;4977421;28;45683;-83
2021/06/14 08:40:34;;;;;;;;;8.00;5.50;;;;;29.46;37.31;101776.06;4975393;28;45355;-83
2021/06/14 08:43:04;;;;;;;;;8.50;7.50;;;;;29.95;37.06;101768.06;4977786;28;45495;-83
2021/06/14 08:45:31;;;;;;;;;8.50;6.25;;;;;30.40;35.73;101768.47;4974929;28;45374;-83
2021/06/14 08:47:57;;;;;;;;;8.00;7.50;;;;;30.86;34.86;101767.91;4976329;28;45470;-82
2021/06/14 08:50:22;;;;;;;;;8.75;6.00;;;;;31.34;34.63;101763.34;4975437;28;45530;-82
2021/06/14 08:52:48;;;;;;;;;6.00;6.00;;;;;31.94;33.75;101766.19;4974870;28;45501;-81
2021/06/14 08:55:16;;;;;;;;;7.25;7.25;;;;;34.28;33.51;101766.47;4962578;28;45721;-82
2021/06/14 08:57:42;;;;;;;;;8.50;7.75;;;;;38.22;29.92;101765.41;4963139;28;46497;-82
2021/06/14 09:00:12;;;;;;;;;7.50;7.00;;;;;41.76;26.75;101758.56;4985542;28;45444;-82
2021/06/14 09:02:38;;;;;;;;;7.00;7.00;;;;;44.58;23.87;101758.97;4976546;28;45683;-81
2021/06/14 09:05:05;;;;;;;;;8.50;7.75;;;;;47.12;21.40;101766.66;4974937;28;45308;-81
2021/06/14 09:07:31;;;;;;;;;7.75;5.75;;;;;49.16;19.70;101773.16;4981589;28;45377;-83
2021/06/14 09:09:56;;;;;;;;;4.00;4.00;;;;;51.25;19.04;101769.34;4975769;28;45475;-87
2021/06/14 09:12:22;;;;;;;;;5.00;5.00;;;;;52.78;17.49;101768.09;4981527;28;45348;-81
2021/06/14 09:14:48;;;;;;;;;5.75;5.75;;;;;54.22;15.47;101760.28;4976207;28;45739;-82
2021/06/14 09:17:17;;;;;;;;;4.00;4.00;;;;;55.53;14.89;101765.03;4974065;28;45437;-84
2021/06/14 09:19:50;;;;;;;;;7.75;5.25;;;;;56.36;13.86;101759.13;4971242;28;45566;-79
2021/06/14 09:22:24;;;;;;;;;7.25;5.50;;;;;56.38;13.35;101767.25;4981103;28;46614;-79
2021/06/14 09:25:00;;;;;;;;;5.00;3.50;;;;;56.22;13.55;101761.44;4979054;28;45676;-80
2021/06/14 09:27:50;;;;;;;;;5.25;5.25;;;;;55.99;13.65;101767.53;4971111;28;45304;-81
2021/06/14 09:30:25;;;;;;;;;8.75;5.75;;;;;55.31;13.48;101764.25;4970984;28;45524;-83
2021/06/14 09:33:03;;;;;;;;;5.00;5.00;;;;;54.39;13.51;101770.59;4962489;28;46428;-86
2021/06/14 09:35:37;;;;;;;;;5.75;4.00;;;;;53.31;13.33;101763.38;4973219;28;45860;-82
2021/06/14 09:38:15;;;;;;;;;3.50;3.50;;;;;52.75;13.93;101763.16;4974907;28;45522;-80
2021/06/14 09:40:55;;;;;;;;;6.75;5.75;;;;;52.27;13.98;101757.53;4974474;28;45541;-83
2021/06/14 09:43:32;;;;;;;;;3.25;3.25;;;;;51.67;14.36;101765.22;4972524;28;46326;-86
2021/06/14 09:45:59;;;;;;;;;5.25;4.00;;;;;51.27;14.01;101761.47;4973571;28;45269;-82
2021/06/14 09:48:28;;;;;;;;;5.25;5.00;;;;;50.97;14.51;101765.75;4973842;28;45376;-83
2021/06/14 09:50:55;;;;;;;;;5.25;4.25;;;;;50.71;14.28;101764.63;4973462;28;45351;-82
2021/06/14 09:53:23;;;;;;;;;4.00;3.00;;;;;50.39;13.73;101764.41;4972533;28;46532;-80
2021/06/14 09:55:52;;;;;;;;;4.50;3.25;;;;;50.13;14.77;101763.25;4973522;28;45367;-81
2021/06/14 09:58:24;;;;;;;;;4.00;4.00;;;;;50.04;14.06;101765.06;4972694;28;49932;-81
2021/06/14 10:00:50;;;;;;;;;6.00;3.50;;;;;50.06;13.66;101754.38;4972743;28;45508;-79
2021/06/14 10:03:15;;;;;;;;;7.00;5.75;;;;;49.94;14.21;101756.88;4972816;28;46207;-79
2021/06/14 10:05:49;;;;;;;;;3.25;2.50;;;;;49.07;13.84;101759.03;4973693;28;45755;-78
2021/06/14 10:08:32;;;;;;;;;3.50;3.50;;;;;47.82;14.28;101760.91;4974987;28;45479;-80
2021/06/14 10:11:05;;;;;;;;;5.25;4.00;;;;;46.68;14.75;101755.44;4976135;28;45531;-79
2021/06/14 10:13:32;;;;;;;;;5.00;5.00;;;;;45.91;15.54;101751.94;4972583;28;46142;-80
2021/06/14 10:16:04;;;;;;;;;3.25;3.25;;;;;45.29;15.50;101754.59;4973561;28;45793;-81
2021/06/14 10:18:38;;;;;;;;;4.00;4.00;;;;;44.49;15.50;101742.88;4971974;28;45529;-80
2021/06/14 10:21:06;;;;;;;;;3.00;3.00;;;;;43.86;16.70;101749.34;4972185;28;45428;-80
2021/06/14 10:23:32;;;;;;;;;4.25;4.00;;;;;43.44;16.33;101752.78;4973660;28;45739;-80
2021/06/14 10:25:59;;;;;;;;;3.75;3.50;;;;;43.17;16.60;101747.19;4976455;28;45537;-80
2021/06/14 10:28:25;;;;;;;;;6.25;5.75;;;;;42.85;15.96;101744.28;4972639;28;45387;-81
2021/06/14 10:30:52;;;;;;;;;4.00;4.00;;;;;42.46;16.07;101750.66;4972935;28;45340;-81
2021/06/14 10:33:21;;;;;;;;;4.00;4.00;;;;;42.05;16.90;101745.56;4971495;28;45451;-79
2021/06/14 10:35:47;;;;;;;;;3.75;2.25;;;;;41.75;16.87;101748.63;4973252;28;45629;-79
2021/06/14 10:38:13;;;;;;;;;3.50;3.00;;;;;41.38;16.86;101754.59;4973769;28;45525;-80
2021/06/14 10:40:39;;;;;;;;;3.00;3.00;;;;;40.93;16.50;101758.06;4972731;28;45522;-80
2021/06/14 10:43:05;;;;;;;;;1.75;1.75;;;;;40.43;16.69;101742.03;4977530;28;45542;-79
2021/06/14 10:45:31;;;;;;;;;3.00;3.00;;;;;40.13;17.20;101740.22;4975310;28;45475;-80
2021/06/14 10:47:58;;;;;;;;;4.00;2.00;;;;;39.72;16.90;101738.31;4972869;28;45484;-80
2021/06/14 10:50:32;;;;;;;;;3.25;3.25;;;;;39.30;16.55;101737.44;4972867;28;45580;-82
2021/06/14 10:52:57;;;;;;;;;2.50;2.50;;;;;38.97;16.84;101749.69;4972930;28;46499;-79
2021/06/14 10:55:25;;;;;;;;;3.00;3.00;;;;;38.72;17.35;101738.72;4972572;28;45409;-80
2021/06/14 10:57:51;;;;;;;;;3.00;3.00;;;;;38.39;17.90;101739.09;4974170;28;45280;-77
2021/06/14 11:00:29;;;;;;;;;4.25;3.00;;;;;38.04;18.46;101739.56;4974373;28;45328;-78
2021/06/14 11:02:59;;;;;;;;;4.00;2.50;;;;;37.79;18.24;101738.69;4974469;28;46304;-80
2021/06/14 11:05:39;;;;;;;;;4.25;3.75;;;;;37.47;18.64;101741.41;4974324;28;45336;-80
2021/06/14 11:08:18;;;;;;;;;2.00;2.00;;;;;37.01;18.49;101727.91;4976436;28;45526;-78
2021/06/14 11:10:49;;;;;;;;;3.75;3.00;;;;;36.77;19.01;101734.94;4974239;28;45395;-78
2021/06/14 11:13:16;;;;;;;;;5.75;3.00;;;;;36.71;18.99;101733.06;4977995;28;46674;-79
2021/06/14 11:15:48;;;;;;;;;3.00;3.00;;;;;36.74;20.11;101736.19;4976241;28;45713;-76
2021/06/14 11:18:30;;;;;;;;;3.25;3.25;;;;;36.74;19.25;101746.31;4975825;28;45454;-80
2021/06/14 11:21:10;;;;;;;;;2.75;2.00;;;;;36.55;18.35;101729.72;4974920;28;45477;-76
2021/06/14 11:23:40;;;;;;;;;3.25;2.00;;;;;36.46;18.73;101730.16;4972218;28;46339;-74
2021/06/14 11:26:06;;;;;;;;;4.00;2.75;;;;;36.45;18.98;101723.84;4977147;28;45483;-75
2021/06/14 11:28:38;;;;;;;;;17.50;16.00;;;;;36.49;19.38;101727.84;4977424;28;45265;-76
2021/06/14 11:31:24;;;;;;;;;8.00;5.00;;;;;36.57;20.10;101733.06;4975684;28;45415;-75
2021/06/14 11:33:51;;;;;;;;;4.00;3.75;;;;;36.41;19.71;101721.72;4971542;28;45740;-77